Terminal Aerodrome Forecast
Issued by NWS

Home | Current Version | Previous Version | Graphics & Text | Print | Product List | Glossary On
Versions: 1 2 3 4 5 6 7 8 9 10 11 12 13
000
FTUS45 KGGW 221700
TAFSDY
TAF
KSDY 221727Z 2218/2318 05009KT P6SM VCSH BKN015
     FM222000 07011KT P6SM VCSH BKN025
     FM230900 04014KT 2SM +RA SCT015 OVC025
      AMD LTD TO CLD VIS AND WIND=

USA.gov is the U.S. government's official web portal to all federal, state and local government web resources and services.